METAR AND TAF INFORMATION
METAR FOR ETMN
ADDS - METARS form results

(0058 UTC 25 September 2022)
Data provider http://aviationweather.gov/metar/data/
 
METAR text: ETMN 250020Z 36006KT 9999 FEW012 OVC045 12/11 Q1013 BLU
Conditions at: ETMN (NORDHOLZ (GER-NA, DE) observed 0020 UTC 25 September 2022
Temperature: 12.0°C (54°F)
Dewpoint: 11.0°C (52°F) [RH = 94%]
Pressure (altimeter): 29.91 inches Hg (1013.0 mb)
Winds: from the N (360 degrees) at 7 MPH (6 knots; 3.1 m/s)
Visibility: 6 or more miles (10+ km)
Ceiling: 4500 feet AGL
Clouds: few clouds at 1200 feet AGL
overcast cloud deck at 4500 feet AGL
Weather: no significant weather observed at this time

 AIRPORT MAP

 RUNWAY INFORMATION
Runway 08 Runway length 8002 ft Runway width 148 ft
Runway elevation 69 ft Runway displaced threshold 0 ft Runway heading 78
Runway 26 Runway length 8002 ft Runway width 148 ft
Runway elevation 39 ft Runway displaced threshold 0 ft Runway heading 258

 AIRPORT FREQUENCIES
Type A/D Name RADAR Frequency 35.612 MHZ
Type A/D Name RADAR Frequency 123.3 MHZ
Type ACC Name BREMEN CON Frequency 124.075 MHZ
Type AFIS Name BREMEN INF Frequency 125.1 MHZ
Type OPS Name WING OPS Frequency 28.252 MHZ
Type TWR Name TWR Frequency 122.1 MHZ

 AIRPORT NEAR NAVIGATION AIDS
Type TACAN Name Nordholz Frequency 117100 KHZ
Type NDB Name Nordholz Frequency 372 KHZ